createdAt,value
2023-05-05T00:00:18.767Z,37.26
2023-05-05T00:01:18.753Z,37.29
2023-05-05T00:02:18.779Z,37.26
2023-05-05T00:03:18.769Z,37.24
2023-05-05T00:04:18.794Z,37.28
2023-05-05T00:05:18.716Z,37.28
2023-05-05T00:06:18.690Z,37.27
2023-05-05T00:07:18.680Z,37.29
2023-05-05T00:08:18.665Z,37.25
2023-05-05T00:09:18.670Z,37.28
2023-05-05T00:10:18.664Z,37.26
2023-05-05T00:11:18.638Z,37.29
2023-05-05T00:12:18.642Z,37.26
2023-05-05T00:13:18.632Z,37.29
2023-05-05T00:14:18.616Z,37.25
2023-05-05T00:15:18.607Z,37.25
2023-05-05T00:16:18.628Z,37.25
2023-05-05T00:17:18.769Z,37.27
2023-05-05T00:18:18.629Z,37.30
2023-05-05T00:19:18.613Z,37.21
2023-05-05T00:20:18.592Z,37.25
2023-05-05T00:21:18.589Z,37.27
2023-05-05T00:22:18.581Z,37.25
2023-05-05T00:23:18.563Z,37.25
2023-05-05T00:24:18.544Z,37.22
2023-05-05T00:25:18.528Z,37.29
2023-05-05T00:26:18.529Z,37.22
2023-05-05T00:27:18.510Z,37.26
2023-05-05T00:28:18.505Z,37.25
2023-05-05T00:29:18.484Z,37.23
2023-05-05T00:30:18.469Z,37.25
2023-05-05T00:31:18.475Z,37.26
2023-05-05T00:32:18.450Z,37.26
2023-05-05T00:33:18.437Z,37.23
2023-05-05T00:34:18.416Z,37.21
2023-05-05T00:35:18.411Z,37.22
2023-05-05T00:36:18.377Z,37.26
2023-05-05T00:37:18.390Z,37.23
2023-05-05T00:38:18.363Z,37.25
2023-05-05T00:39:18.355Z,37.22
2023-05-05T00:40:18.384Z,37.25
2023-05-05T00:41:18.340Z,37.23
2023-05-05T00:42:18.319Z,37.21
2023-05-05T00:43:18.337Z,37.22
2023-05-05T00:44:18.325Z,37.27
2023-05-05T00:45:18.348Z,37.23
2023-05-05T00:46:18.328Z,37.25
2023-05-05T00:47:18.302Z,37.23
2023-05-05T00:48:18.284Z,37.23
2023-05-05T00:49:18.323Z,37.24
2023-05-05T00:50:18.260Z,37.25
2023-05-05T00:51:18.260Z,37.21
2023-05-05T00:52:18.299Z,37.22
2023-05-05T00:53:18.240Z,37.28
2023-05-05T00:54:18.224Z,37.20
2023-05-05T00:55:18.215Z,37.25
2023-05-05T00:56:18.214Z,37.24
2023-05-05T00:57:18.206Z,37.22
2023-05-05T00:58:18.195Z,37.20
2023-05-05T00:59:18.193Z,37.25
2023-05-05T01:00:18.209Z,37.24
2023-05-05T01:01:18.219Z,37.17
2023-05-05T01:02:18.182Z,37.19
2023-05-05T01:03:18.260Z,37.16
2023-05-05T01:04:18.156Z,37.20
2023-05-05T01:05:18.152Z,37.23
2023-05-05T01:06:18.143Z,37.19
2023-05-05T01:07:18.129Z,37.25
2023-05-05T01:08:18.124Z,37.19
2023-05-05T01:09:18.104Z,37.15
2023-05-05T01:10:20.479Z,37.20
2023-05-05T01:11:18.090Z,37.16
2023-05-05T01:12:18.075Z,37.17
2023-05-05T01:13:18.055Z,37.23
2023-05-05T01:14:18.047Z,37.16
2023-05-05T01:15:18.028Z,37.17
2023-05-05T01:16:18.038Z,37.15
2023-05-05T01:17:17.997Z,37.18
2023-05-05T01:18:17.976Z,37.20
2023-05-05T01:19:17.967Z,37.17
2023-05-05T01:20:17.977Z,37.18
2023-05-05T01:21:17.948Z,37.17
2023-05-05T01:22:17.951Z,37.24
2023-05-05T01:23:17.936Z,37.21
2023-05-05T01:24:17.974Z,37.20
2023-05-05T01:25:17.903Z,37.21
2023-05-05T01:26:17.879Z,37.18
2023-05-05T01:27:17.871Z,37.18
2023-05-05T01:28:17.861Z,37.16
2023-05-05T01:29:17.853Z,37.11
2023-05-05T01:30:17.872Z,37.14
2023-05-05T01:31:17.855Z,37.18
2023-05-05T01:32:17.827Z,37.18
2023-05-05T01:33:17.802Z,37.12
2023-05-05T01:34:17.786Z,37.14
2023-05-05T01:35:17.782Z,37.13
2023-05-05T01:36:17.769Z,37.14
2023-05-05T01:37:17.752Z,37.21
2023-05-05T01:38:17.733Z,37.14
2023-05-05T01:39:17.721Z,37.17
2023-05-05T01:40:17.721Z,37.14
2023-05-05T01:41:17.747Z,37.17
2023-05-05T01:42:17.690Z,37.14
2023-05-05T01:43:17.687Z,37.14
2023-05-05T01:44:17.673Z,37.12
2023-05-05T01:45:17.656Z,37.09
2023-05-05T01:46:17.716Z,37.13
2023-05-05T01:47:17.675Z,37.11
2023-05-05T01:48:17.627Z,37.11
2023-05-05T01:49:17.669Z,37.08
2023-05-05T01:50:17.594Z,37.07
2023-05-05T01:51:17.586Z,37.11
2023-05-05T01:52:17.588Z,37.07
2023-05-05T01:53:17.618Z,37.03
2023-05-05T01:54:17.545Z,37.04
2023-05-05T01:55:17.507Z,37.04
2023-05-05T01:56:17.504Z,37.04
2023-05-05T01:57:17.488Z,36.99
2023-05-05T01:58:17.560Z,36.99
2023-05-05T01:59:17.465Z,37.01
2023-05-05T02:00:17.445Z,37.00
2023-05-05T02:01:17.463Z,37.01
2023-05-05T02:02:17.416Z,36.97
2023-05-05T02:03:17.514Z,37.03
2023-05-05T02:04:17.377Z,37.00
2023-05-05T02:05:17.384Z,36.98
2023-05-05T02:06:17.358Z,37.03
2023-05-05T02:07:17.327Z,36.98
2023-05-05T02:08:17.337Z,37.00
2023-05-05T02:09:17.303Z,37.01
2023-05-05T02:10:17.280Z,37.01
2023-05-05T02:11:17.274Z,37.07
2023-05-05T02:12:17.256Z,36.99
2023-05-05T02:13:17.350Z,36.97
2023-05-05T02:14:17.218Z,36.98
2023-05-05T02:15:17.218Z,37.00
2023-05-05T02:16:17.237Z,36.96
2023-05-05T02:17:17.161Z,36.97
2023-05-05T02:18:17.155Z,36.98
2023-05-05T02:19:17.127Z,36.95
2023-05-05T02:20:17.098Z,36.96
2023-05-05T02:21:17.082Z,36.99
2023-05-05T02:22:17.067Z,36.99
2023-05-05T02:23:17.051Z,36.99
2023-05-05T02:24:17.036Z,36.96
2023-05-05T02:25:17.005Z,36.97
2023-05-05T02:26:16.992Z,36.99
2023-05-05T02:27:16.960Z,36.96
2023-05-05T02:28:16.957Z,36.98
2023-05-05T02:29:16.954Z,36.96
2023-05-05T02:30:16.949Z,36.92
2023-05-05T02:31:16.922Z,36.92
2023-05-05T02:32:16.889Z,36.96
2023-05-05T02:33:16.868Z,36.95
2023-05-05T02:34:16.878Z,36.91
2023-05-05T02:35:16.844Z,36.90
2023-05-05T02:36:16.844Z,36.91
2023-05-05T02:37:16.822Z,36.93
2023-05-05T02:38:16.794Z,36.92
2023-05-05T02:39:16.775Z,36.91
2023-05-05T02:40:16.759Z,36.95
2023-05-05T02:41:16.796Z,36.91
2023-05-05T02:42:16.712Z,36.91
2023-05-05T02:43:16.801Z,36.88
2023-05-05T02:44:16.686Z,36.88
2023-05-05T02:45:16.645Z,36.93
2023-05-05T02:46:16.662Z,36.89
2023-05-05T02:47:16.597Z,36.91
2023-05-05T02:48:16.599Z,36.86
2023-05-05T02:49:16.551Z,36.91
2023-05-05T02:50:16.546Z,36.90
2023-05-05T02:51:16.527Z,36.88
2023-05-05T02:52:16.499Z,36.91
2023-05-05T02:53:16.485Z,36.89
2023-05-05T02:54:16.466Z,36.88
2023-05-05T02:55:16.456Z,36.95
2023-05-05T02:56:16.427Z,36.91
2023-05-05T02:57:16.419Z,36.91
2023-05-05T02:58:16.397Z,36.90
2023-05-05T02:59:16.611Z,36.90
2023-05-05T03:00:16.353Z,36.89
2023-05-05T03:01:16.369Z,36.91
2023-05-05T03:02:16.377Z,36.88
2023-05-05T03:03:16.432Z,36.88
2023-05-05T03:04:16.287Z,36.88
2023-05-05T03:05:16.260Z,36.88
2023-05-05T03:06:16.281Z,36.87
2023-05-05T03:07:16.242Z,36.85
2023-05-05T03:08:16.227Z,36.87
2023-05-05T03:09:16.213Z,36.85
2023-05-05T03:10:16.228Z,36.87
2023-05-05T03:11:16.184Z,36.89
2023-05-05T03:12:16.186Z,36.87
2023-05-05T03:13:16.174Z,36.90
2023-05-05T03:14:16.180Z,36.85
2023-05-05T03:15:16.143Z,36.93
2023-05-05T03:16:16.140Z,36.88
2023-05-05T03:17:16.096Z,36.90
2023-05-05T03:18:16.075Z,36.88
2023-05-05T03:19:16.058Z,36.89
2023-05-05T03:20:16.031Z,36.88
2023-05-05T03:21:16.034Z,36.87
2023-05-05T03:22:16.017Z,36.85
2023-05-05T03:23:15.984Z,36.85
2023-05-05T03:24:15.969Z,36.84
2023-05-05T03:25:15.954Z,36.84
2023-05-05T03:26:15.917Z,36.84
2023-05-05T03:27:15.907Z,36.84
2023-05-05T03:28:15.914Z,36.83
2023-05-05T03:29:15.884Z,36.81
2023-05-05T03:30:15.864Z,36.85
2023-05-05T03:31:15.843Z,36.81
2023-05-05T03:32:15.846Z,36.83
2023-05-05T03:33:15.814Z,36.81
2023-05-05T03:34:15.798Z,36.87
2023-05-05T03:35:15.783Z,36.85
2023-05-05T03:36:15.769Z,36.83
2023-05-05T03:37:15.749Z,36.84
2023-05-05T03:38:15.753Z,36.80
2023-05-05T03:39:15.730Z,36.83
2023-05-05T03:40:15.729Z,36.84
2023-05-05T03:41:15.699Z,36.83
2023-05-05T03:42:15.691Z,36.84
2023-05-05T03:43:15.665Z,36.84
2023-05-05T03:44:15.664Z,36.87
2023-05-05T03:45:15.630Z,36.83
2023-05-05T03:46:15.638Z,36.81
2023-05-05T03:47:15.601Z,36.79
2023-05-05T03:48:15.599Z,36.84
2023-05-05T03:49:15.584Z,36.77
2023-05-05T03:50:15.559Z,36.83
2023-05-05T03:51:15.585Z,36.81
2023-05-05T03:52:15.531Z,36.79
2023-05-05T03:53:15.517Z,36.81
2023-05-05T03:54:15.495Z,36.80
2023-05-05T03:55:15.492Z,36.84
2023-05-05T03:56:15.471Z,36.83
2023-05-05T03:57:15.467Z,36.79
2023-05-05T03:58:15.436Z,36.77
2023-05-05T03:59:15.419Z,36.76
2023-05-05T04:00:15.421Z,36.84
2023-05-05T04:01:15.387Z,36.76
2023-05-05T04:02:17.017Z,36.82
2023-05-05T04:03:15.580Z,36.80
2023-05-05T04:04:15.380Z,36.80
2023-05-05T04:05:15.348Z,36.76
2023-05-05T04:06:15.318Z,36.75
2023-05-05T04:07:15.301Z,36.81
2023-05-05T04:08:15.286Z,36.77
2023-05-05T04:09:15.266Z,36.81
2023-05-05T04:10:15.251Z,36.78
2023-05-05T04:11:15.240Z,36.79
2023-05-05T04:12:15.229Z,36.82
2023-05-05T04:13:15.293Z,36.81
2023-05-05T04:14:15.184Z,36.80
2023-05-05T04:15:15.177Z,36.77
2023-05-05T04:16:15.178Z,36.78
2023-05-05T04:17:15.139Z,36.77
2023-05-05T04:18:15.127Z,36.78
2023-05-05T04:19:15.105Z,36.77
2023-05-05T04:20:15.096Z,36.81
2023-05-05T04:21:15.085Z,36.73
2023-05-05T04:22:15.059Z,36.74
2023-05-05T04:23:15.056Z,36.76
2023-05-05T04:24:15.024Z,36.73
2023-05-05T04:25:15.010Z,36.74
2023-05-05T04:26:14.992Z,36.72
2023-05-05T04:27:14.965Z,36.77
2023-05-05T04:28:14.956Z,36.76
2023-05-05T04:29:14.930Z,36.69
2023-05-05T04:30:14.929Z,36.74
2023-05-05T04:31:14.937Z,36.74
2023-05-05T04:32:14.903Z,36.76
2023-05-05T04:33:14.873Z,36.74
2023-05-05T04:34:14.868Z,36.72
2023-05-05T04:35:14.837Z,36.69
2023-05-05T04:36:14.833Z,36.73
2023-05-05T04:37:14.802Z,36.74
2023-05-05T04:38:14.789Z,36.72
2023-05-05T04:39:14.798Z,36.72
2023-05-05T04:40:14.824Z,36.74
2023-05-05T04:41:14.730Z,36.72
2023-05-05T04:42:14.706Z,36.70
2023-05-05T04:43:14.712Z,36.69
2023-05-05T04:44:14.664Z,36.69
2023-05-05T04:45:14.657Z,36.70
2023-05-05T04:46:14.665Z,36.66
2023-05-05T04:47:14.862Z,36.69
2023-05-05T04:48:14.584Z,36.69
2023-05-05T04:49:14.574Z,36.65
2023-05-05T04:50:14.541Z,36.64
2023-05-05T04:51:14.519Z,36.68
2023-05-05T04:52:14.495Z,36.66
2023-05-05T04:53:14.489Z,36.68
2023-05-05T04:54:14.465Z,36.65
2023-05-05T04:55:14.450Z,36.65
2023-05-05T04:56:14.443Z,36.68
2023-05-05T04:57:14.424Z,36.65
2023-05-05T04:58:14.401Z,36.65
2023-05-05T04:59:14.396Z,36.66
2023-05-05T05:00:14.383Z,36.69
2023-05-05T05:01:14.363Z,36.64
2023-05-05T05:02:14.427Z,36.65
2023-05-05T05:03:14.412Z,36.63
2023-05-05T05:04:14.296Z,36.61
2023-05-05T05:05:14.275Z,36.61
2023-05-05T05:06:14.260Z,36.62
2023-05-05T05:07:14.238Z,36.60
2023-05-05T05:08:14.221Z,36.64
2023-05-05T05:09:14.213Z,36.57
2023-05-05T05:10:14.196Z,36.57
2023-05-05T05:11:14.172Z,36.58
2023-05-05T05:12:14.142Z,36.56
2023-05-05T05:13:14.155Z,36.56
2023-05-05T05:14:14.098Z,36.53
2023-05-05T05:15:14.078Z,36.58
2023-05-05T05:16:14.116Z,36.57
2023-05-05T05:17:14.051Z,36.55
2023-05-05T05:18:14.050Z,36.15
2023-05-05T05:19:14.028Z,35.45
2023-05-05T05:20:14.033Z,35.00
2023-05-05T05:21:14.799Z,35.26
2023-05-05T05:22:13.988Z,35.16
2023-05-05T05:23:13.964Z,35.10
2023-05-05T05:24:13.960Z,35.57
2023-05-05T05:25:13.944Z,35.81
2023-05-05T05:26:13.948Z,36.18
2023-05-05T05:27:13.942Z,35.82
2023-05-05T05:28:13.897Z,34.42
2023-05-05T05:29:13.895Z,35.01
2023-05-05T05:30:13.876Z,35.23
2023-05-05T05:31:13.849Z,35.48
2023-05-05T05:32:13.902Z,34.99
2023-05-05T05:33:13.823Z,34.34
2023-05-05T05:34:14.820Z,32.41
2023-05-05T05:35:13.809Z,32.32
2023-05-05T05:36:13.807Z,31.29
2023-05-05T05:37:13.811Z,31.30
2023-05-05T05:38:13.800Z,31.23
2023-05-05T05:39:13.791Z,31.45
2023-05-05T05:40:13.793Z,31.50
2023-05-05T05:41:13.787Z,31.94
2023-05-05T05:42:13.792Z,31.65
2023-05-05T05:43:13.810Z,31.36
2023-05-05T05:44:13.822Z,31.56
2023-05-05T05:45:13.806Z,31.60
2023-05-05T05:46:13.862Z,31.65
2023-05-05T05:47:13.805Z,31.41
2023-05-05T05:48:13.811Z,31.40
2023-05-05T05:49:13.816Z,31.66
2023-05-05T05:50:13.823Z,31.43
2023-05-05T05:51:13.800Z,31.40
2023-05-05T05:52:13.833Z,31.53
2023-05-05T05:53:13.837Z,31.62
2023-05-05T05:54:13.807Z,31.39
2023-05-05T05:55:13.816Z,31.21
2023-05-05T05:56:13.863Z,30.87
2023-05-05T05:57:13.809Z,30.91
2023-05-05T05:58:13.827Z,31.24
2023-05-05T05:59:13.803Z,31.12
2023-05-05T06:00:13.796Z,31.11
2023-05-05T06:01:13.802Z,31.49
2023-05-05T06:02:13.847Z,30.94
2023-05-05T06:03:13.971Z,31.05
2023-05-05T06:04:13.828Z,31.09
2023-05-05T06:05:13.787Z,31.24
2023-05-05T06:06:13.801Z,30.74
2023-05-05T06:07:13.785Z,30.86
2023-05-05T06:08:13.778Z,30.48
2023-05-05T06:09:13.767Z,30.44
2023-05-05T06:10:26.500Z,30.38
2023-05-05T06:11:14.769Z,30.47
2023-05-05T06:12:13.761Z,30.81
2023-05-05T06:13:13.860Z,30.75
2023-05-05T06:14:13.765Z,30.62
2023-05-05T06:15:13.759Z,30.70
2023-05-05T06:16:13.806Z,30.06
2023-05-05T06:17:13.754Z,30.04
2023-05-05T06:18:13.773Z,30.09
2023-05-05T06:19:13.747Z,29.99
2023-05-05T06:20:13.790Z,29.99
2023-05-05T06:21:13.747Z,30.04
2023-05-05T06:22:13.730Z,30.27
2023-05-05T06:23:13.764Z,30.22
2023-05-05T06:24:13.860Z,30.30
2023-05-05T06:25:13.709Z,30.18
2023-05-05T06:26:13.705Z,30.93
2023-05-05T06:27:13.689Z,31.21
2023-05-05T06:28:13.721Z,31.35
2023-05-05T06:29:13.749Z,31.41
2023-05-05T06:30:13.785Z,31.39
2023-05-05T06:31:13.885Z,31.36
2023-05-05T06:32:13.841Z,31.54
2023-05-05T06:33:14.354Z,31.73
2023-05-05T06:34:13.846Z,31.88
2023-05-05T06:35:13.879Z,31.97
2023-05-05T06:36:13.844Z,32.21
2023-05-05T06:37:13.808Z,32.40
2023-05-05T06:38:13.802Z,32.11
2023-05-05T06:39:15.935Z,32.09
2023-05-05T06:40:13.782Z,32.04
2023-05-05T06:41:13.829Z,32.02
2023-05-05T06:42:13.767Z,32.05
2023-05-05T06:43:13.807Z,32.20
2023-05-05T06:44:13.860Z,32.29
2023-05-05T06:45:13.880Z,32.42
2023-05-05T06:46:14.800Z,32.47
2023-05-05T06:47:13.958Z,32.62
2023-05-05T06:48:13.992Z,32.68
2023-05-05T06:49:14.032Z,32.56
2023-05-05T06:50:14.076Z,32.86
2023-05-05T06:51:14.116Z,33.03
2023-05-05T06:52:14.143Z,33.12
2023-05-05T06:53:14.125Z,32.97
2023-05-05T06:54:14.162Z,33.14
2023-05-05T06:55:14.182Z,33.18
2023-05-05T06:56:14.189Z,33.32
2023-05-05T06:57:14.199Z,33.25
2023-05-05T06:58:14.225Z,33.45
2023-05-05T06:59:14.275Z,33.53
2023-05-05T07:00:14.210Z,33.56
2023-05-05T07:01:14.248Z,33.59
2023-05-05T07:02:14.206Z,34.05
2023-05-05T07:03:15.006Z,34.04
2023-05-05T07:04:14.461Z,34.16
2023-05-05T07:05:14.200Z,34.22
2023-05-05T07:06:14.193Z,34.36
2023-05-05T07:07:14.187Z,34.48
2023-05-05T07:08:14.155Z,34.52
2023-05-05T07:09:15.701Z,34.61
2023-05-05T07:10:14.137Z,34.74
2023-05-05T07:11:14.715Z,34.76
2023-05-05T07:12:14.063Z,34.97
2023-05-05T07:13:14.073Z,35.02
2023-05-05T07:14:14.008Z,35.12
2023-05-05T07:15:26.756Z,35.52
2023-05-05T07:16:14.959Z,35.39
2023-05-05T07:17:13.926Z,35.57
2023-05-05T07:18:13.915Z,35.48
2023-05-05T07:19:13.845Z,35.17
2023-05-05T07:20:13.926Z,34.84
2023-05-05T07:21:13.758Z,35.24
2023-05-05T07:22:13.738Z,34.68
2023-05-05T07:23:13.713Z,35.13
2023-05-05T07:24:13.679Z,35.13
2023-05-05T07:25:13.657Z,35.31
2023-05-05T07:26:13.625Z,35.55
2023-05-05T07:27:13.590Z,35.62
2023-05-05T07:28:13.573Z,35.90
2023-05-05T07:29:13.969Z,35.96
2023-05-05T07:30:16.540Z,35.99
2023-05-05T07:31:14.541Z,36.14
2023-05-05T07:32:13.482Z,36.11
2023-05-05T07:33:13.422Z,36.65
2023-05-05T07:34:13.385Z,36.74
2023-05-05T07:35:13.355Z,36.97
2023-05-05T07:36:13.314Z,36.85
2023-05-05T07:37:13.278Z,37.31
2023-05-05T07:38:13.240Z,36.96
2023-05-05T07:39:13.204Z,37.04
2023-05-05T07:40:13.194Z,37.11
2023-05-05T07:41:13.129Z,37.15
2023-05-05T07:42:13.098Z,37.51
2023-05-05T07:43:13.048Z,37.68
2023-05-05T07:44:14.021Z,37.74
2023-05-05T07:45:12.982Z,37.76
2023-05-05T07:46:12.987Z,37.81
2023-05-05T07:47:12.958Z,37.89
2023-05-05T07:48:12.884Z,37.84
2023-05-05T07:49:12.807Z,37.92
2023-05-05T07:50:12.777Z,38.07
2023-05-05T07:51:12.725Z,38.13
2023-05-05T07:52:12.749Z,38.31
2023-05-05T07:53:14.897Z,38.30
2023-05-05T07:54:12.827Z,38.38
2023-05-05T07:55:12.844Z,38.46
2023-05-05T07:56:12.869Z,38.99
2023-05-05T07:57:12.886Z,39.00
2023-05-05T07:58:13.894Z,39.23
2023-05-05T07:59:12.979Z,39.26
2023-05-05T08:00:13.822Z,39.38
2023-05-05T08:01:13.897Z,39.38
2023-05-05T08:02:13.826Z,39.85
2023-05-05T08:03:13.161Z,39.64
2023-05-05T08:04:13.061Z,39.63
2023-05-05T08:05:13.014Z,39.58
2023-05-05T08:06:14.010Z,39.81
2023-05-05T08:07:13.012Z,40.17
2023-05-05T08:08:13.045Z,40.16
2023-05-05T08:09:13.042Z,40.63
2023-05-05T08:10:13.097Z,40.58
2023-05-05T08:11:13.052Z,40.32
2023-05-05T08:12:14.021Z,40.08
2023-05-05T08:13:13.029Z,40.12
2023-05-05T08:14:12.925Z,39.36
2023-05-05T08:15:12.894Z,39.35
2023-05-05T08:16:12.888Z,37.76
2023-05-05T08:17:12.784Z,37.25
2023-05-05T08:18:12.738Z,36.29
2023-05-05T08:19:27.722Z,36.24
2023-05-05T08:20:13.653Z,36.53
2023-05-05T08:21:12.609Z,36.81
2023-05-05T08:22:12.569Z,37.07
2023-05-05T08:23:12.538Z,37.20
2023-05-05T08:24:13.505Z,37.22
2023-05-05T08:25:12.459Z,37.23
2023-05-05T08:26:12.412Z,37.35
2023-05-05T08:27:12.382Z,37.25
2023-05-05T08:28:12.341Z,37.29
2023-05-05T08:29:12.320Z,37.22
2023-05-05T08:30:12.273Z,37.29
2023-05-05T08:31:12.284Z,37.28
2023-05-05T08:32:12.188Z,37.31
2023-05-05T08:33:12.190Z,37.33
2023-05-05T08:34:12.117Z,37.35
2023-05-05T08:35:12.440Z,37.32
2023-05-05T08:36:12.022Z,37.36
2023-05-05T08:37:12.030Z,37.37
2023-05-05T08:38:11.947Z,37.35
2023-05-05T08:39:11.912Z,37.45
2023-05-05T08:40:11.869Z,37.43
2023-05-05T08:41:11.833Z,37.48
2023-05-05T08:42:14.293Z,37.44
2023-05-05T08:43:12.769Z,37.43
2023-05-05T08:44:11.736Z,37.46
2023-05-05T08:45:11.908Z,37.45
2023-05-05T08:46:11.668Z,37.46
2023-05-05T08:47:11.630Z,37.48
2023-05-05T08:48:11.652Z,37.52
2023-05-05T08:49:11.919Z,37.57
2023-05-05T08:50:11.546Z,37.57
2023-05-05T08:51:11.738Z,37.54
2023-05-05T08:52:11.464Z,37.50
2023-05-05T08:53:11.428Z,37.60
2023-05-05T08:54:11.374Z,37.59
2023-05-05T08:55:11.346Z,37.59
2023-05-05T08:56:11.324Z,37.58
2023-05-05T08:57:11.290Z,37.58
2023-05-05T08:58:11.250Z,37.60
2023-05-05T08:59:11.255Z,37.64
2023-05-05T09:00:11.185Z,37.60
2023-05-05T09:01:11.217Z,37.56
2023-05-05T09:02:11.179Z,37.59
2023-05-05T09:03:11.207Z,37.63
2023-05-05T09:04:11.101Z,37.65
2023-05-05T09:05:11.202Z,37.64
2023-05-05T09:06:11.922Z,37.64
2023-05-05T09:07:11.050Z,37.63
2023-05-05T09:08:10.968Z,37.63
2023-05-05T09:09:10.944Z,37.64
2023-05-05T09:10:10.932Z,37.65
2023-05-05T09:11:10.937Z,37.64
2023-05-05T09:12:10.901Z,37.58
2023-05-05T09:13:10.986Z,37.54
2023-05-05T09:14:10.865Z,37.62
2023-05-05T09:15:10.942Z,37.62
2023-05-05T09:16:11.943Z,37.66
2023-05-05T09:17:10.854Z,37.61
2023-05-05T09:18:11.006Z,38.29
2023-05-05T09:19:10.743Z,38.74
2023-05-05T09:20:10.724Z,37.39
2023-05-05T09:21:10.661Z,37.36
2023-05-05T09:22:10.632Z,36.52
2023-05-05T09:23:10.686Z,36.73
2023-05-05T09:24:10.563Z,37.30
2023-05-05T09:25:10.645Z,37.33
2023-05-05T09:26:10.514Z,36.76
2023-05-05T09:27:10.474Z,37.00
2023-05-05T09:28:10.455Z,37.14
2023-05-05T09:29:10.430Z,37.38
2023-05-05T09:30:10.403Z,37.53
2023-05-05T09:31:12.004Z,37.32
2023-05-05T09:32:10.304Z,37.41
2023-05-05T09:33:10.295Z,37.07
2023-05-05T09:34:12.060Z,37.43
2023-05-05T09:35:10.254Z,37.33
2023-05-05T09:36:10.124Z,37.32
2023-05-05T09:37:10.090Z,37.29
2023-05-05T09:38:10.053Z,37.50
2023-05-05T09:39:10.279Z,36.99
2023-05-05T09:40:09.974Z,37.01
2023-05-05T09:41:09.950Z,37.47
2023-05-05T09:42:09.890Z,36.67
2023-05-05T09:43:09.861Z,37.03
2023-05-05T09:44:09.833Z,37.27
2023-05-05T09:45:10.012Z,36.93
2023-05-05T09:46:09.877Z,37.17
2023-05-05T09:47:22.341Z,37.09
2023-05-05T09:48:10.969Z,37.50
2023-05-05T09:49:09.991Z,37.43
2023-05-05T09:50:10.107Z,37.28
2023-05-05T09:51:10.005Z,37.24
2023-05-05T09:52:10.024Z,37.25
2023-05-05T09:53:10.056Z,37.50
2023-05-05T09:54:10.081Z,37.36
2023-05-05T09:55:10.169Z,37.70
2023-05-05T09:56:10.007Z,37.38
2023-05-05T09:57:09.964Z,37.31
2023-05-05T09:58:10.006Z,37.39
2023-05-05T09:59:09.878Z,37.21
2023-05-05T10:00:10.025Z,37.33
2023-05-05T10:01:10.416Z,37.52
2023-05-05T10:02:10.463Z,37.45
2023-05-05T10:03:11.020Z,37.32
2023-05-05T10:04:10.433Z,37.26
2023-05-05T10:05:10.114Z,37.61
2023-05-05T10:06:09.840Z,37.57
2023-05-05T10:07:09.777Z,37.69
2023-05-05T10:08:09.762Z,37.64
2023-05-05T10:09:09.695Z,37.70
2023-05-05T10:10:10.008Z,37.08
2023-05-05T10:11:09.680Z,37.02
2023-05-05T10:12:09.562Z,37.30
2023-05-05T10:13:09.634Z,37.24
2023-05-05T10:14:10.365Z,36.87
2023-05-05T10:15:09.550Z,36.83
2023-05-05T10:16:09.442Z,36.71
2023-05-05T10:17:09.351Z,36.56
2023-05-05T10:18:09.337Z,36.75
2023-05-05T10:19:09.286Z,37.21
2023-05-05T10:20:09.443Z,37.44
2023-05-05T10:21:09.325Z,37.75
2023-05-05T10:22:09.318Z,37.92
2023-05-05T10:23:09.363Z,38.01
2023-05-05T10:24:09.335Z,38.21
2023-05-05T10:25:09.957Z,38.39
2023-05-05T10:26:09.341Z,38.54
2023-05-05T10:27:10.587Z,38.52
2023-05-05T10:28:09.301Z,38.57
2023-05-05T10:29:09.258Z,38.88
2023-05-05T10:30:09.481Z,38.76
2023-05-05T10:31:23.906Z,38.96
2023-05-05T10:32:33.474Z,39.06
2023-05-05T10:33:30.434Z,39.01
2023-05-05T10:34:10.322Z,39.16
2023-05-05T10:35:08.980Z,39.44
2023-05-05T10:36:11.461Z,39.66
2023-05-05T10:37:10.059Z,39.50
2023-05-05T10:38:08.974Z,39.45
2023-05-05T10:39:08.917Z,39.85
2023-05-05T10:40:09.114Z,39.78
2023-05-05T10:41:08.835Z,39.60
2023-05-05T10:42:08.771Z,39.65
2023-05-05T10:43:09.591Z,39.84
2023-05-05T10:44:08.675Z,39.90
2023-05-05T10:45:08.658Z,39.97
2023-05-05T10:46:13.574Z,39.99
2023-05-05T10:47:08.544Z,40.25
2023-05-05T10:48:10.158Z,40.47
2023-05-05T10:49:09.684Z,40.26
2023-05-05T10:50:08.634Z,40.24
2023-05-05T10:51:08.364Z,40.41
2023-05-05T10:52:08.342Z,40.23
2023-05-05T10:53:08.264Z,40.20
2023-05-05T10:54:08.235Z,40.25
2023-05-05T10:55:08.157Z,40.23
2023-05-05T10:56:08.110Z,40.28
2023-05-05T10:57:08.082Z,40.26
2023-05-05T10:58:08.009Z,40.73
2023-05-05T10:59:08.026Z,40.58
2023-05-05T11:00:08.256Z,40.75
2023-05-05T11:01:07.933Z,40.57
2023-05-05T11:02:07.833Z,40.24
2023-05-05T11:03:07.851Z,39.89
2023-05-05T11:04:07.805Z,40.01
2023-05-05T11:05:07.660Z,39.97
2023-05-05T11:06:07.654Z,39.87
2023-05-05T11:07:07.549Z,39.83
2023-05-05T11:08:07.524Z,39.80
2023-05-05T11:09:07.469Z,39.84
2023-05-05T11:10:07.741Z,39.75
2023-05-05T11:11:07.376Z,39.79
2023-05-05T11:12:07.320Z,39.84
2023-05-05T11:13:07.401Z,39.82
2023-05-05T11:14:07.234Z,39.91
2023-05-05T11:15:07.334Z,39.92
2023-05-05T11:16:07.179Z,39.93
2023-05-05T11:17:07.105Z,39.97
2023-05-05T11:18:08.217Z,40.06
2023-05-05T11:19:07.036Z,40.07
2023-05-05T11:20:07.055Z,40.03
2023-05-05T11:21:06.964Z,40.00
2023-05-05T11:22:07.558Z,40.12
2023-05-05T11:23:07.030Z,40.14
2023-05-05T11:24:06.954Z,40.10
2023-05-05T11:25:06.961Z,40.13
2023-05-05T11:26:06.954Z,40.13
2023-05-05T11:27:06.958Z,40.15
2023-05-05T11:28:06.991Z,40.14
2023-05-05T11:29:07.124Z,40.14
2023-05-05T11:30:07.193Z,40.18
2023-05-05T11:31:07.089Z,40.10
2023-05-05T11:32:06.975Z,40.09
2023-05-05T11:33:07.059Z,40.11
2023-05-05T11:34:06.972Z,40.12
2023-05-05T11:35:07.485Z,40.14
2023-05-05T11:36:07.280Z,40.14
2023-05-05T11:37:06.957Z,40.16
2023-05-05T11:38:06.968Z,40.12
2023-05-05T11:39:06.968Z,40.08
2023-05-05T11:40:07.253Z,40.06
2023-05-05T11:41:06.964Z,40.04
2023-05-05T11:42:10.419Z,40.03
2023-05-05T11:43:06.933Z,40.06
2023-05-05T11:44:06.905Z,40.02
2023-05-05T11:45:06.861Z,40.02
2023-05-05T11:46:06.902Z,39.99
2023-05-05T11:47:06.863Z,40.01
2023-05-05T11:49:06.733Z,39.96
2023-05-05T11:50:06.882Z,39.91
2023-05-05T11:51:06.623Z,39.96
2023-05-05T11:52:06.580Z,39.91
2023-05-05T11:53:06.545Z,39.90
2023-05-05T11:54:06.510Z,39.89
2023-05-05T11:55:06.529Z,39.87
2023-05-05T11:56:06.432Z,39.86
2023-05-05T11:57:06.395Z,39.84
2023-05-05T11:58:06.354Z,39.81
2023-05-05T11:59:06.339Z,39.87
2023-05-05T12:00:06.596Z,39.79
2023-05-05T12:01:06.227Z,39.81
2023-05-05T12:02:06.192Z,39.77
2023-05-05T12:03:06.314Z,39.73
2023-05-05T12:04:06.177Z,39.72
2023-05-05T12:05:06.075Z,39.74
2023-05-05T12:06:06.025Z,39.65
2023-05-05T12:07:05.984Z,39.64
2023-05-05T12:08:05.951Z,39.65
2023-05-05T12:09:05.912Z,39.65
2023-05-05T12:10:06.006Z,39.62
2023-05-05T12:11:05.817Z,39.57
2023-05-05T12:12:05.798Z,39.61
2023-05-05T12:13:05.832Z,39.58
2023-05-05T12:14:05.695Z,39.53
2023-05-05T12:15:05.683Z,39.56
2023-05-05T12:16:05.656Z,39.48
2023-05-05T12:17:05.583Z,39.45
2023-05-05T12:18:05.588Z,39.41
2023-05-05T12:19:05.507Z,39.39
2023-05-05T12:20:05.556Z,39.40
2023-05-05T12:21:05.419Z,39.36
2023-05-05T12:22:05.377Z,39.39
2023-05-05T12:23:05.363Z,39.41
2023-05-05T12:24:05.302Z,39.35
2023-05-05T12:25:05.258Z,39.34
2023-05-05T12:26:05.205Z,39.35
2023-05-05T12:27:05.155Z,39.27
2023-05-05T12:28:05.115Z,39.21
2023-05-05T12:29:05.080Z,39.27
2023-05-05T12:30:05.038Z,39.22
2023-05-05T12:31:05.013Z,39.18
2023-05-05T12:32:05.070Z,39.25
2023-05-05T12:33:05.002Z,39.18
2023-05-05T12:34:04.922Z,39.22
2023-05-05T12:35:04.998Z,39.17
2023-05-05T12:36:04.941Z,39.21
2023-05-05T12:37:04.850Z,39.17
2023-05-05T12:38:04.841Z,39.12
2023-05-05T12:39:04.811Z,39.14
2023-05-05T12:40:04.763Z,39.11
2023-05-05T12:41:04.744Z,39.10
2023-05-05T12:42:04.712Z,39.07
2023-05-05T12:43:04.669Z,39.08
2023-05-05T12:44:04.679Z,39.05
2023-05-05T12:45:04.613Z,39.03
2023-05-05T12:46:04.620Z,39.01
2023-05-05T12:47:04.544Z,38.98
2023-05-05T12:48:04.576Z,39.02
2023-05-05T12:49:04.520Z,39.00
2023-05-05T12:50:04.479Z,38.98
2023-05-05T12:51:04.468Z,38.99
2023-05-05T12:52:04.389Z,38.91
2023-05-05T12:53:04.347Z,38.94